createdAt,value
2023-01-21T00:02:26.434Z,54.47
2023-01-21T00:04:55.253Z,49.80
2023-01-21T00:07:26.214Z,50.10
2023-01-21T00:09:54.985Z,51.10
2023-01-21T00:12:23.773Z,51.80
2023-01-21T00:14:52.540Z,48.37
2023-01-21T00:17:21.266Z,51.67
2023-01-21T00:19:49.971Z,54.13
2023-01-21T00:22:18.824Z,52.33
2023-01-21T00:24:49.000Z,59.63
2023-01-21T00:27:17.784Z,51.90
2023-01-21T00:29:46.645Z,46.83
2023-01-21T00:32:15.417Z,52.83
2023-01-21T00:34:44.219Z,52.87
2023-01-21T00:37:13.082Z,60.53
2023-01-21T00:39:43.222Z,56.77
2023-01-21T00:42:13.709Z,53.47
2023-01-21T00:44:42.482Z,60.63
2023-01-21T00:47:11.225Z,52.03
2023-01-21T00:49:40.024Z,50.20
2023-01-21T00:52:08.802Z,47.40
2023-01-21T00:54:37.640Z,48.70
2023-01-21T00:57:07.072Z,52.20
2023-01-21T00:59:37.409Z,44.73
2023-01-21T01:02:06.205Z,53.27
2023-01-21T01:04:35.024Z,52.57
2023-01-21T01:07:03.828Z,49.00
2023-01-21T01:09:32.707Z,52.57
2023-01-21T01:12:01.452Z,51.10
2023-01-21T01:14:30.214Z,48.67
2023-01-21T01:17:00.400Z,47.33
2023-01-21T01:19:29.317Z,54.83
2023-01-21T01:21:58.075Z,50.27
2023-01-21T01:24:26.900Z,44.87
2023-01-21T01:26:55.576Z,50.07
2023-01-21T01:29:24.327Z,49.10
2023-01-21T01:31:53.140Z,45.80
2023-01-21T01:34:23.464Z,55.17
2023-01-21T01:36:52.281Z,57.23
2023-01-21T01:39:21.004Z,46.67
2023-01-21T01:41:49.765Z,58.27
2023-01-21T01:44:51.723Z,58.20
2023-01-21T01:47:21.713Z,54.53
2023-01-21T01:49:52.158Z,56.17
2023-01-21T01:52:21.824Z,64.13
2023-01-21T01:54:54.381Z,54.83
2023-01-21T01:57:28.223Z,56.30
2023-01-21T01:59:57.106Z,53.27
2023-01-21T02:02:25.934Z,61.57
2023-01-21T02:04:59.592Z,50.30
2023-01-21T02:07:30.364Z,56.90
2023-01-21T02:09:59.195Z,55.40
2023-01-21T02:12:28.027Z,47.17
2023-01-21T02:14:56.902Z,51.40
2023-01-21T02:17:45.966Z,61.77
2023-01-21T02:20:51.102Z,58.20
2023-01-21T02:23:30.148Z,53.00
2023-01-21T02:26:38.334Z,48.90
2023-01-21T02:29:40.034Z,44.60
2023-01-21T02:32:41.072Z,54.43
2023-01-21T02:35:15.848Z,47.67
2023-01-21T02:37:51.473Z,50.17
2023-01-21T02:40:26.967Z,44.53
2023-01-21T02:43:03.737Z,43.70
2023-01-21T02:45:39.419Z,40.17
2023-01-21T02:48:13.489Z,42.13
2023-01-21T02:50:46.892Z,38.70
2023-01-21T02:53:27.789Z,37.30
2023-01-21T02:55:59.133Z,38.10
2023-01-21T02:58:32.725Z,31.60
2023-01-21T03:01:12.787Z,36.17
2023-01-21T03:04:09.334Z,31.73
2023-01-21T03:06:49.184Z,40.70
2023-01-21T03:09:24.820Z,36.53
2023-01-21T03:12:02.917Z,33.17
2023-01-21T03:14:54.432Z,38.80
2023-01-21T03:17:35.548Z,34.03
2023-01-21T03:20:09.761Z,32.17
2023-01-21T03:22:41.545Z,29.60
2023-01-21T03:25:13.141Z,33.90
2023-01-21T03:27:44.362Z,34.60
2023-01-21T03:30:16.332Z,36.67
2023-01-21T03:32:49.604Z,27.30
2023-01-21T03:35:23.696Z,33.90
2023-01-21T03:37:58.135Z,42.97
2023-01-21T03:40:30.030Z,29.97
2023-01-21T03:42:59.373Z,34.37
2023-01-21T03:45:37.375Z,40.17
2023-01-21T03:48:17.881Z,40.77
2023-01-21T03:50:52.954Z,42.83
2023-01-21T03:53:23.846Z,39.40
2023-01-21T03:55:52.893Z,44.23
2023-01-21T03:58:21.699Z,47.53
2023-01-21T04:00:50.646Z,39.33
2023-01-21T04:03:19.431Z,38.83
2023-01-21T04:05:48.142Z,36.70
2023-01-21T04:08:16.903Z,37.33
2023-01-21T04:10:47.044Z,37.40
2023-01-21T04:13:15.752Z,36.97
2023-01-21T04:15:44.552Z,39.07
2023-01-21T04:18:13.293Z,34.10
2023-01-21T04:20:42.045Z,34.97
2023-01-21T04:23:10.803Z,33.73
2023-01-21T04:25:39.584Z,42.40
2023-01-21T04:28:09.739Z,46.17
2023-01-21T04:30:38.440Z,45.83
2023-01-21T04:33:07.156Z,36.90
2023-01-21T04:35:36.723Z,38.30
2023-01-21T04:38:05.877Z,34.57
2023-01-21T04:40:34.612Z,27.67
2023-01-21T04:43:03.373Z,44.90
2023-01-21T04:45:33.607Z,34.70
2023-01-21T04:48:02.309Z,34.57
2023-01-21T04:50:31.051Z,38.07
2023-01-21T04:52:59.771Z,32.70
2023-01-21T04:55:28.650Z,36.17
2023-01-21T04:57:57.394Z,36.70
2023-01-21T05:00:26.184Z,38.27
2023-01-21T05:02:56.776Z,45.40
2023-01-21T05:05:25.528Z,33.43
2023-01-21T05:07:54.484Z,36.27
2023-01-21T05:10:23.440Z,32.00
2023-01-21T05:12:52.168Z,38.90
2023-01-21T05:15:21.210Z,32.87
2023-01-21T05:17:49.918Z,30.73
2023-01-21T05:20:20.690Z,36.13
2023-01-21T05:22:49.989Z,38.43
2023-01-21T05:25:18.841Z,33.80
2023-01-21T05:27:53.903Z,34.83
2023-01-21T05:30:23.142Z,34.00
2023-01-21T05:32:52.775Z,42.50
2023-01-21T05:35:24.072Z,41.50
2023-01-21T05:37:52.994Z,35.33
2023-01-21T05:40:21.782Z,42.97
2023-01-21T05:42:50.568Z,50.23
2023-01-21T05:45:19.509Z,46.10
2023-01-21T05:47:48.242Z,38.83
2023-01-21T05:50:17.390Z,32.60
2023-01-21T05:52:47.742Z,43.80
2023-01-21T05:55:16.592Z,33.87
2023-01-21T05:57:45.334Z,26.03
2023-01-21T06:00:15.828Z,32.73
2023-01-21T06:02:44.844Z,30.13
2023-01-21T06:05:13.648Z,28.17
2023-01-21T06:07:42.417Z,33.33
2023-01-21T06:10:13.122Z,30.60
2023-01-21T06:12:41.901Z,36.20
2023-01-21T06:15:11.425Z,26.80
2023-01-21T06:17:41.499Z,26.40
2023-01-21T06:20:11.708Z,32.90
2023-01-21T06:22:40.719Z,30.67
2023-01-21T06:25:10.138Z,31.00
2023-01-21T06:27:40.382Z,30.23
2023-01-21T06:30:11.109Z,28.37
2023-01-21T06:32:39.865Z,35.83
2023-01-21T06:35:09.234Z,31.77
2023-01-21T06:37:37.966Z,28.00
2023-01-21T06:40:08.860Z,34.50
2023-01-21T06:42:37.626Z,36.20
2023-01-21T06:45:09.314Z,29.13
2023-01-21T06:47:38.047Z,25.13
2023-01-21T06:50:07.718Z,30.20
2023-01-21T06:52:36.452Z,31.37
2023-01-21T06:55:05.529Z,26.40
2023-01-21T06:57:34.270Z,31.20
2023-01-21T07:00:03.176Z,28.03
2023-01-21T07:02:33.421Z,25.87
2023-01-21T07:05:02.435Z,28.80
2023-01-21T07:07:31.637Z,24.00
2023-01-21T07:10:00.562Z,30.03
2023-01-21T07:12:29.314Z,29.17
2023-01-21T07:14:58.159Z,28.57
2023-01-21T07:17:27.037Z,29.40
2023-01-21T07:19:57.219Z,27.77
2023-01-21T07:22:26.033Z,27.60
2023-01-21T07:24:54.837Z,30.13
2023-01-21T07:27:24.066Z,34.63
2023-01-21T07:29:52.876Z,28.37
2023-01-21T07:32:21.607Z,23.80
2023-01-21T07:34:50.499Z,25.37
2023-01-21T07:37:20.797Z,26.73
2023-01-21T07:39:49.614Z,24.57
2023-01-21T07:42:18.341Z,22.27
2023-01-21T07:44:47.053Z,22.23
2023-01-21T07:47:15.773Z,23.47
2023-01-21T07:49:44.480Z,21.87
2023-01-21T07:52:13.230Z,27.20
2023-01-21T07:54:43.481Z,22.07
2023-01-21T07:57:12.308Z,25.70
2023-01-21T07:59:41.088Z,23.27
2023-01-21T08:02:11.297Z,27.97
2023-01-21T08:04:40.145Z,24.10
2023-01-21T08:07:13.008Z,25.50
2023-01-21T08:09:43.874Z,26.33
2023-01-21T08:12:12.683Z,19.37
2023-01-21T08:14:41.380Z,24.40
2023-01-21T08:17:10.166Z,18.47
2023-01-21T08:19:38.959Z,20.03
2023-01-21T08:22:07.856Z,18.37
2023-01-21T08:24:36.762Z,25.20
2023-01-21T08:27:07.000Z,18.93
2023-01-21T08:29:35.891Z,25.50
2023-01-21T08:32:04.652Z,17.60
2023-01-21T08:34:33.963Z,19.30
2023-01-21T08:37:02.831Z,23.83
2023-01-21T08:39:31.608Z,19.80
2023-01-21T08:42:00.657Z,20.00
2023-01-21T08:44:30.868Z,24.03
2023-01-21T08:46:59.652Z,22.50
2023-01-21T08:49:28.475Z,20.67
2023-01-21T08:51:57.696Z,17.00
2023-01-21T08:54:26.624Z,20.63
2023-01-21T08:56:55.415Z,21.07
2023-01-21T08:59:28.954Z,22.40
2023-01-21T09:01:59.279Z,24.00
2023-01-21T09:04:28.072Z,20.10
2023-01-21T09:06:57.177Z,19.27
2023-01-21T09:09:25.975Z,21.60
2023-01-21T09:11:54.802Z,21.13
2023-01-21T09:14:23.537Z,22.67
2023-01-21T09:16:52.671Z,18.73
2023-01-21T09:19:24.162Z,17.93
2023-01-21T09:21:55.821Z,16.30
2023-01-21T09:24:25.330Z,20.50
2023-01-21T09:26:54.175Z,17.00
2023-01-21T09:29:23.039Z,19.13
2023-01-21T09:31:51.982Z,16.27
2023-01-21T09:34:22.316Z,17.77
2023-01-21T09:36:51.185Z,16.70
2023-01-21T09:39:20.007Z,15.03
2023-01-21T09:41:52.838Z,17.73
2023-01-21T09:44:26.622Z,16.10
2023-01-21T09:47:01.495Z,19.53
2023-01-21T09:49:35.862Z,16.70
2023-01-21T09:52:24.288Z,21.57
2023-01-21T09:54:53.231Z,15.30
2023-01-21T09:57:45.177Z,17.07
2023-01-21T10:00:32.695Z,18.67
2023-01-21T10:03:10.635Z,20.10
2023-01-21T10:06:24.683Z,18.17
2023-01-21T10:09:22.280Z,15.27
2023-01-21T10:12:03.945Z,16.87
2023-01-21T10:15:01.827Z,20.07
2023-01-21T10:17:43.850Z,16.93
2023-01-21T10:20:18.395Z,14.83
2023-01-21T10:22:56.003Z,15.93
2023-01-21T10:25:34.203Z,14.93
2023-01-21T10:28:07.060Z,13.77
2023-01-21T10:30:40.347Z,12.87
2023-01-21T10:33:18.910Z,11.97
2023-01-21T10:36:17.129Z,12.73
2023-01-21T10:38:57.519Z,13.50
2023-01-21T10:41:37.737Z,10.70
2023-01-21T10:44:17.004Z,12.57
2023-01-21T10:46:51.712Z,11.03
2023-01-21T10:49:32.744Z,14.73
2023-01-21T10:52:07.980Z,8.97
2023-01-21T10:54:48.607Z,10.73
2023-01-21T10:57:33.233Z,9.10
2023-01-21T11:00:04.215Z,10.10
2023-01-21T11:02:34.230Z,9.10
2023-01-21T11:05:05.601Z,9.60
2023-01-21T11:07:39.451Z,8.63
2023-01-21T11:10:14.768Z,9.63
2023-01-21T11:12:43.609Z,11.00
2023-01-21T11:15:17.416Z,10.67
2023-01-21T11:17:49.192Z,11.33
2023-01-21T11:20:23.477Z,8.80
2023-01-21T11:22:53.059Z,9.63
2023-01-21T11:25:37.891Z,9.10
2023-01-21T11:28:07.363Z,9.23
2023-01-21T11:30:52.033Z,9.40
2023-01-21T11:33:25.853Z,9.80
2023-01-21T11:35:56.057Z,8.37
2023-01-21T11:38:42.395Z,12.30
2023-01-21T11:41:22.942Z,9.07
2023-01-21T11:43:54.875Z,8.90
2023-01-21T11:46:29.404Z,7.50
2023-01-21T11:49:19.492Z,8.70
2023-01-21T11:51:49.638Z,8.20
2023-01-21T11:54:20.259Z,7.83
2023-01-21T11:56:58.853Z,7.27
2023-01-21T11:59:34.104Z,8.20
2023-01-21T12:02:09.716Z,7.83
2023-01-21T12:04:44.473Z,7.77
2023-01-21T12:07:21.444Z,8.07
2023-01-21T12:09:55.160Z,7.53
2023-01-21T12:13:03.476Z,7.37
2023-01-21T12:15:46.533Z,10.80
2023-01-21T12:18:27.926Z,10.37
2023-01-21T12:21:04.345Z,9.90
2023-01-21T12:23:51.467Z,8.00
2023-01-21T12:26:35.943Z,7.47
2023-01-21T12:29:29.916Z,8.63
2023-01-21T12:32:03.735Z,8.50
2023-01-21T12:34:38.604Z,7.30
2023-01-21T12:37:14.535Z,14.60
2023-01-21T12:39:45.621Z,9.47
2023-01-21T12:42:20.792Z,8.50
2023-01-21T12:44:54.645Z,8.40
2023-01-21T12:47:30.356Z,9.20
2023-01-21T12:50:20.987Z,9.60
2023-01-21T12:53:00.772Z,9.70
2023-01-21T12:55:38.563Z,10.63
2023-01-21T12:58:13.203Z,10.40
2023-01-21T13:00:47.564Z,8.47
2023-01-21T13:03:27.680Z,9.70
2023-01-21T13:06:02.180Z,10.00
2023-01-21T13:08:45.354Z,10.70
2023-01-21T13:11:20.825Z,9.20
2023-01-21T13:13:59.375Z,10.83
2023-01-21T13:16:30.734Z,10.67
2023-01-21T13:19:00.883Z,9.97
2023-01-21T13:21:39.882Z,9.87
2023-01-21T13:24:17.553Z,13.87
2023-01-21T13:26:51.895Z,12.17
2023-01-21T13:29:28.739Z,11.40
2023-01-21T13:32:13.783Z,12.07
2023-01-21T13:34:53.218Z,11.53
2023-01-21T13:37:27.895Z,11.03
2023-01-21T13:40:15.786Z,11.50
2023-01-21T13:42:55.287Z,12.70
2023-01-21T13:45:33.281Z,12.60
2023-01-21T13:48:21.433Z,11.93
2023-01-21T13:51:14.549Z,10.47
2023-01-21T13:53:58.188Z,10.40
2023-01-21T13:56:47.283Z,11.03
2023-01-21T13:59:20.264Z,11.80
2023-01-21T14:01:55.641Z,12.50
2023-01-21T14:04:31.836Z,10.67
2023-01-21T14:07:06.138Z,11.80
2023-01-21T14:09:42.789Z,10.80
2023-01-21T14:12:19.744Z,11.27
2023-01-21T14:15:08.832Z,11.90
2023-01-21T14:18:04.570Z,10.80
2023-01-21T14:20:48.709Z,12.30
2023-01-21T14:23:44.431Z,11.50
2023-01-21T14:26:29.493Z,10.60
2023-01-21T14:29:09.283Z,11.33
2023-01-21T14:31:43.084Z,11.40
2023-01-21T14:34:18.997Z,13.80
2023-01-21T14:36:57.567Z,13.20
2023-01-21T14:39:43.280Z,18.70
2023-01-21T14:42:13.651Z,12.07
2023-01-21T14:44:45.015Z,12.77
2023-01-21T14:47:19.287Z,11.17
2023-01-21T14:49:49.885Z,11.90
2023-01-21T14:52:22.716Z,10.87
2023-01-21T14:54:51.879Z,14.17
2023-01-21T14:57:27.956Z,10.80
2023-01-21T15:00:05.847Z,12.93
2023-01-21T15:02:37.687Z,10.87
2023-01-21T15:05:19.621Z,10.67
2023-01-21T15:07:59.643Z,10.77
2023-01-21T15:10:33.869Z,10.57
2023-01-21T15:13:06.142Z,11.57
2023-01-21T15:15:37.270Z,10.63
2023-01-21T15:18:25.760Z,11.77
2023-01-21T15:20:58.893Z,10.70
2023-01-21T15:23:42.250Z,10.87
2023-01-21T15:26:32.525Z,10.50
2023-01-21T15:29:34.100Z,11.90
2023-01-21T15:32:30.591Z,12.13
2023-01-21T15:35:02.217Z,11.07
2023-01-21T15:37:33.759Z,11.67
2023-01-21T15:40:16.406Z,13.20
2023-01-21T15:42:51.889Z,13.20
2023-01-21T15:45:32.171Z,15.60
2023-01-21T15:48:40.930Z,16.77
2023-01-21T15:51:26.388Z,16.60
2023-01-21T15:54:09.343Z,23.37
2023-01-21T15:56:57.457Z,23.70
2023-01-21T15:59:48.285Z,22.67
2023-01-21T16:02:23.241Z,24.30
2023-01-21T16:05:08.109Z,24.97
2023-01-21T16:07:49.768Z,24.43
2023-01-21T16:10:28.163Z,15.67
2023-01-21T16:13:11.496Z,17.87
2023-01-21T16:15:55.626Z,16.23
2023-01-21T16:18:35.239Z,16.70
2023-01-21T16:21:05.679Z,17.33
2023-01-21T16:23:40.473Z,14.93
2023-01-21T16:26:09.851Z,15.17
2023-01-21T16:28:49.996Z,20.20
2023-01-21T16:31:19.871Z,15.40
2023-01-21T16:33:49.351Z,17.03
2023-01-21T16:36:20.997Z,17.43
2023-01-21T16:38:51.908Z,18.00
2023-01-21T16:41:27.876Z,18.57
2023-01-21T16:44:03.048Z,18.30
2023-01-21T16:46:37.688Z,19.80
2023-01-21T16:49:15.097Z,17.70
2023-01-21T16:51:52.279Z,18.70
2023-01-21T16:54:26.912Z,19.73
2023-01-21T16:56:59.772Z,18.07
2023-01-21T16:59:32.704Z,18.37
2023-01-21T17:02:03.240Z,20.03
2023-01-21T17:04:32.570Z,21.33
2023-01-21T17:07:01.539Z,21.50
2023-01-21T17:09:34.218Z,20.10
2023-01-21T17:12:08.111Z,19.53
2023-01-21T17:14:40.140Z,22.20
2023-01-21T17:17:10.615Z,24.43
2023-01-21T17:19:44.321Z,23.77
2023-01-21T17:22:17.807Z,24.03
2023-01-21T17:25:00.535Z,23.17
2023-01-21T17:27:31.541Z,21.63
2023-01-21T17:30:22.175Z,21.60
2023-01-21T17:33:00.816Z,20.57
2023-01-21T17:35:32.099Z,20.43
2023-01-21T17:38:02.978Z,17.87
2023-01-21T17:40:35.266Z,17.60
2023-01-21T17:43:18.475Z,17.73
2023-01-21T17:45:52.910Z,18.40
2023-01-21T17:48:27.932Z,18.77
2023-01-21T17:50:58.636Z,18.40
2023-01-21T17:53:32.629Z,19.03
2023-01-21T17:56:04.298Z,17.90
2023-01-21T17:58:46.781Z,18.27
2023-01-21T18:01:21.155Z,22.67
2023-01-21T18:03:50.914Z,25.20
2023-01-21T18:06:24.229Z,27.23
2023-01-21T18:08:54.799Z,31.57
2023-01-21T18:11:24.815Z,29.57
2023-01-21T18:13:53.624Z,28.23
2023-01-21T18:16:24.484Z,33.70
2023-01-21T18:18:55.038Z,29.00
2023-01-21T18:21:24.593Z,27.13
2023-01-21T18:23:55.328Z,31.27
2023-01-21T18:26:30.431Z,27.83
2023-01-21T18:29:00.656Z,30.20
2023-01-21T18:31:32.614Z,27.90
2023-01-21T18:34:02.053Z,28.00
2023-01-21T18:36:58.552Z,26.97
2023-01-21T18:39:30.288Z,24.60
2023-01-21T18:41:59.885Z,23.47
2023-01-21T18:44:37.609Z,24.80
2023-01-21T18:47:15.553Z,27.90
2023-01-21T18:49:45.755Z,28.10
2023-01-21T18:52:17.922Z,33.20
2023-01-21T18:54:48.433Z,32.27
2023-01-21T18:57:21.948Z,36.53
2023-01-21T18:59:51.338Z,32.20
2023-01-21T19:02:22.973Z,37.07
2023-01-21T19:04:54.130Z,33.83
2023-01-21T19:07:26.310Z,37.40
2023-01-21T19:09:56.019Z,30.37
2023-01-21T19:12:27.445Z,31.37
2023-01-21T19:14:57.262Z,30.70
2023-01-21T19:17:30.085Z,30.53
2023-01-21T19:20:00.687Z,28.07
2023-01-21T19:22:32.266Z,31.10
2023-01-21T19:25:02.075Z,27.90
2023-01-21T19:27:35.749Z,26.80
2023-01-21T19:30:17.552Z,25.10
2023-01-21T19:32:50.427Z,27.83
2023-01-21T19:35:24.078Z,29.90
2023-01-21T19:37:53.859Z,28.73
2023-01-21T19:40:26.006Z,33.97
2023-01-21T19:42:55.967Z,37.17
2023-01-21T19:45:35.072Z,35.90
2023-01-21T19:48:12.592Z,28.93
2023-01-21T19:50:43.305Z,34.20
2023-01-21T19:53:15.915Z,34.80
2023-01-21T19:55:46.627Z,38.07
2023-01-21T19:58:32.661Z,47.33
2023-01-21T20:01:03.630Z,50.57
2023-01-21T20:03:35.688Z,43.73
2023-01-21T20:06:06.099Z,47.13
2023-01-21T20:08:41.187Z,49.27
2023-01-21T20:11:12.113Z,40.43
2023-01-21T20:13:42.133Z,38.43
2023-01-21T20:16:18.152Z,39.37
2023-01-21T20:18:50.769Z,42.40
2023-01-21T20:21:21.091Z,41.33
2023-01-21T20:23:51.662Z,50.43
2023-01-21T20:26:31.369Z,43.90
2023-01-21T20:29:04.475Z,41.53
2023-01-21T20:31:36.732Z,36.20
2023-01-21T20:34:09.590Z,41.10
2023-01-21T20:36:40.745Z,43.90
2023-01-21T20:39:15.936Z,34.90
2023-01-21T20:41:46.121Z,40.67
2023-01-21T20:44:15.521Z,40.53
2023-01-21T20:46:48.850Z,42.00
2023-01-21T20:49:23.927Z,37.17
2023-01-21T20:51:54.703Z,46.70
2023-01-21T20:54:27.073Z,46.90
2023-01-21T20:56:58.606Z,45.53
2023-01-21T20:59:29.705Z,44.70
2023-01-21T21:01:59.561Z,44.20
2023-01-21T21:04:31.993Z,45.80
2023-01-21T21:07:01.845Z,44.70
2023-01-21T21:09:37.084Z,41.00
2023-01-21T21:12:07.079Z,46.03
2023-01-21T21:14:36.816Z,40.33
2023-01-21T21:17:08.783Z,46.07
2023-01-21T21:19:40.293Z,46.27
2023-01-21T21:22:10.622Z,47.87
2023-01-21T21:24:40.693Z,57.97
2023-01-21T21:27:14.543Z,49.70
2023-01-21T21:29:44.739Z,41.47
2023-01-21T21:32:15.974Z,44.80
2023-01-21T21:34:47.743Z,46.53
2023-01-21T21:37:17.639Z,105.97
2023-01-21T21:39:46.992Z,163.20
2023-01-21T21:42:33.268Z,85.90
2023-01-21T21:45:02.475Z,86.13
2023-01-21T21:47:49.254Z,58.53
2023-01-21T21:50:20.493Z,51.87
2023-01-21T21:52:51.296Z,54.23
2023-01-21T21:55:21.104Z,55.37
2023-01-21T21:57:50.740Z,54.27
2023-01-21T22:00:22.209Z,50.63
2023-01-21T22:02:51.470Z,60.13
2023-01-21T22:05:22.023Z,48.07
2023-01-21T22:07:51.047Z,48.73
2023-01-21T22:10:21.080Z,66.10
2023-01-21T22:12:50.219Z,58.37
2023-01-21T22:15:19.419Z,49.77
2023-01-21T22:17:48.560Z,57.10
2023-01-21T22:20:17.509Z,66.23
2023-01-21T22:22:48.038Z,55.77
2023-01-21T22:25:17.253Z,56.67
2023-01-21T22:27:48.316Z,55.30
2023-01-21T22:30:17.622Z,58.20
2023-01-21T22:32:46.349Z,53.40
2023-01-21T22:35:15.349Z,58.43
2023-01-21T22:37:44.323Z,56.37
2023-01-21T22:40:16.563Z,52.83
2023-01-21T22:42:45.374Z,45.40
2023-01-21T22:45:14.617Z,51.13
2023-01-21T22:47:43.720Z,47.73
2023-01-21T22:50:13.732Z,49.23
2023-01-21T22:52:43.650Z,58.77
2023-01-21T22:55:13.983Z,46.77
2023-01-21T22:57:42.876Z,45.80
2023-01-21T23:00:16.216Z,47.77
2023-01-21T23:02:44.999Z,51.03
2023-01-21T23:05:13.835Z,45.87
2023-01-21T23:07:42.836Z,58.77
2023-01-21T23:10:14.817Z,46.90
2023-01-21T23:12:43.771Z,51.37
2023-01-21T23:15:12.671Z,49.80
2023-01-21T23:17:41.861Z,49.13
2023-01-21T23:20:12.171Z,47.73
2023-01-21T23:22:41.219Z,49.40
2023-01-21T23:25:11.618Z,46.97
2023-01-21T23:27:41.927Z,47.63
2023-01-21T23:30:12.455Z,57.83
2023-01-21T23:32:41.233Z,52.40
2023-01-21T23:35:10.913Z,47.27
2023-01-21T23:37:39.908Z,50.60
2023-01-21T23:40:10.061Z,47.73
2023-01-21T23:42:38.831Z,59.13
2023-01-21T23:45:10.376Z,55.00
2023-01-21T23:47:39.093Z,50.57
2023-01-21T23:50:09.147Z,50.77
2023-01-21T23:52:38.218Z,52.83
2023-01-21T23:55:09.461Z,50.30
2023-01-21T23:57:38.442Z,48.33
